sensor_id;sensor_type;location;lat;lon;timestamp;temperature;humidity
47921;DHT22;33686;48.770;9.186;2023-07-08T05:15:56;27.30;81.90
47921;DHT22;33686;48.770;9.186;2023-07-08T05:18:21;27.30;81.40
47921;DHT22;33686;48.770;9.186;2023-07-08T05:20:51;27.40;81.50
47921;DHT22;33686;48.770;9.186;2023-07-08T05:23:16;27.30;81.50
47921;DHT22;33686;48.770;9.186;2023-07-08T05:25:43;28.70;79.60
47921;DHT22;33686;48.770;9.186;2023-07-08T05:28:08;28.60;80.40
47921;DHT22;33686;48.770;9.186;2023-07-08T05:30:35;29.10;79.50
47921;DHT22;33686;48.770;9.186;2023-07-08T05:33:00;29.60;78.70
47921;DHT22;33686;48.770;9.186;2023-07-08T05:35:26;28.00;79.90
47921;DHT22;33686;48.770;9.186;2023-07-08T05:37:51;27.60;80.50
47921;DHT22;33686;48.770;9.186;2023-07-08T05:40:17;26.80;81.50
47921;DHT22;33686;48.770;9.186;2023-07-08T05:42:42;26.20;82.70
47921;DHT22;33686;48.770;9.186;2023-07-08T05:45:08;26.10;84.00
47921;DHT22;33686;48.770;9.186;2023-07-08T05:47:36;25.70;84.20
47921;DHT22;33686;48.770;9.186;2023-07-08T05:50:01;25.60;84.60
47921;DHT22;33686;48.770;9.186;2023-07-08T05:52:27;25.40;85.20
47921;DHT22;33686;48.770;9.186;2023-07-08T05:54:52;26.30;84.40
47921;DHT22;33686;48.770;9.186;2023-07-08T05:57:18;26.50;84.40
47921;DHT22;33686;48.770;9.186;2023-07-08T05:59:43;27.20;84.10
47921;DHT22;33686;48.770;9.186;2023-07-08T06:02:10;26.90;82.50
47921;DHT22;33686;48.770;9.186;2023-07-08T06:04:36;27.70;82.30
47921;DHT22;33686;48.770;9.186;2023-07-08T06:07:01;27.60;81.30
47921;DHT22;33686;48.770;9.186;2023-07-08T06:09:27;27.60;80.90
47921;DHT22;33686;48.770;9.186;2023-07-08T06:11:52;27.90;81.30
47921;DHT22;33686;48.770;9.186;2023-07-08T06:14:18;28.10;80.90
47921;DHT22;33686;48.770;9.186;2023-07-08T06:16:43;28.60;80.10
47921;DHT22;33686;48.770;9.186;2023-07-08T06:19:09;28.40;79.80
47921;DHT22;33686;48.770;9.186;2023-07-08T06:21:35;29.40;78.90
47921;DHT22;33686;48.770;9.186;2023-07-08T06:24:00;30.60;77.70
47921;DHT22;33686;48.770;9.186;2023-07-08T06:26:26;30.30;76.70
47921;DHT22;33686;48.770;9.186;2023-07-08T06:28:52;31.10;76.00
47921;DHT22;33686;48.770;9.186;2023-07-08T06:31:17;30.80;75.50
47921;DHT22;33686;48.770;9.186;2023-07-08T06:33:43;29.90;76.20
47921;DHT22;33686;48.770;9.186;2023-07-08T06:36:08;29.80;76.50
47921;DHT22;33686;48.770;9.186;2023-07-08T06:38:34;29.10;77.00
47921;DHT22;33686;48.770;9.186;2023-07-08T06:41:00;28.60;78.10
47921;DHT22;33686;48.770;9.186;2023-07-08T06:43:25;28.30;80.00
47921;DHT22;33686;48.770;9.186;2023-07-08T06:46:10;28.10;80.30
47921;DHT22;33686;48.770;9.186;2023-07-08T06:48:35;28.00;80.50
47921;DHT22;33686;48.770;9.186;2023-07-08T06:51:01;28.10;81.00
47921;DHT22;33686;48.770;9.186;2023-07-08T06:53:26;28.40;80.80
47921;DHT22;33686;48.770;9.186;2023-07-08T06:55:52;28.70;80.30
47921;DHT22;33686;48.770;9.186;2023-07-08T06:58:17;29.20;79.90
47921;DHT22;33686;48.770;9.186;2023-07-08T07:00:43;29.40;79.40
47921;DHT22;33686;48.770;9.186;2023-07-08T07:03:09;29.20;79.90
47921;DHT22;33686;48.770;9.186;2023-07-08T07:05:35;29.00;80.30
47921;DHT22;33686;48.770;9.186;2023-07-08T07:08:01;28.40;81.30
47921;DHT22;33686;48.770;9.186;2023-07-08T07:10:27;28.00;82.20
47921;DHT22;33686;48.770;9.186;2023-07-08T07:12:52;27.90;83.10
47921;DHT22;33686;48.770;9.186;2023-07-08T07:15:18;27.70;83.10
47921;DHT22;33686;48.770;9.186;2023-07-08T07:17:43;27.60;83.40
47921;DHT22;33686;48.770;9.186;2023-07-08T07:20:09;27.30;83.90
47921;DHT22;33686;48.770;9.186;2023-07-08T07:22:35;27.20;84.60
47921;DHT22;33686;48.770;9.186;2023-07-08T07:25:01;27.30;85.30
47921;DHT22;33686;48.770;9.186;2023-07-08T07:27:26;27.30;85.10
47921;DHT22;33686;48.770;9.186;2023-07-08T07:29:52;27.20;85.40
47921;DHT22;33686;48.770;9.186;2023-07-08T07:32:18;27.10;85.70
47921;DHT22;33686;48.770;9.186;2023-07-08T07:34:47;27.20;86.30
47921;DHT22;33686;48.770;9.186;2023-07-08T07:37:13;27.30;85.90
47921;DHT22;33686;48.770;9.186;2023-07-08T07:39:40;27.30;86.20
47921;DHT22;33686;48.770;9.186;2023-07-08T07:42:05;27.10;86.60
47921;DHT22;33686;48.770;9.186;2023-07-08T07:44:31;27.10;86.80
47921;DHT22;33686;48.770;9.186;2023-07-08T07:46:56;27.10;87.00
47921;DHT22;33686;48.770;9.186;2023-07-08T07:49:22;27.10;86.90
47921;DHT22;33686;48.770;9.186;2023-07-08T07:51:47;27.20;87.30
47921;DHT22;33686;48.770;9.186;2023-07-08T07:54:14;27.40;87.20
47921;DHT22;33686;48.770;9.186;2023-07-08T07:56:39;27.70;86.60
47921;DHT22;33686;48.770;9.186;2023-07-08T07:59:05;28.20;85.90
47921;DHT22;33686;48.770;9.186;2023-07-08T08:01:30;29.30;84.70
47921;DHT22;33686;48.770;9.186;2023-07-08T08:03:56;30.10;83.70
47921;DHT22;33686;48.770;9.186;2023-07-08T08:06:21;31.20;82.10
47921;DHT22;33686;48.770;9.186;2023-07-08T08:08:47;32.00;80.50
47921;DHT22;33686;48.770;9.186;2023-07-08T08:11:14;32.10;79.50
47921;DHT22;33686;48.770;9.186;2023-07-08T08:13:40;31.90;80.90
47921;DHT22;33686;48.770;9.186;2023-07-08T08:16:05;32.50;80.10
47921;DHT22;33686;48.770;9.186;2023-07-08T08:18:31;33.80;78.90
47921;DHT22;33686;48.770;9.186;2023-07-08T08:20:57;33.90;77.70
47921;DHT22;33686;48.770;9.186;2023-07-08T08:23:22;33.00;77.70
47921;DHT22;33686;48.770;9.186;2023-07-08T08:25:48;31.90;78.90
47921;DHT22;33686;48.770;9.186;2023-07-08T08:28:15;31.70;79.40
47921;DHT22;33686;48.770;9.186;2023-07-08T08:30:40;31.60;79.50
47921;DHT22;33686;48.770;9.186;2023-07-08T08:33:06;32.30;79.30
47921;DHT22;33686;48.770;9.186;2023-07-08T08:35:31;33.20;77.90
47921;DHT22;33686;48.770;9.186;2023-07-08T08:37:57;33.40;77.20
47921;DHT22;33686;48.770;9.186;2023-07-08T08:40:22;33.60;76.60
47921;DHT22;33686;48.770;9.186;2023-07-08T08:42:52;33.60;77.00
47921;DHT22;33686;48.770;9.186;2023-07-08T08:45:19;34.30;75.80
47921;DHT22;33686;48.770;9.186;2023-07-08T08:47:54;35.00;74.60
47921;DHT22;33686;48.770;9.186;2023-07-08T08:52:51;33.90;75.00
47921;DHT22;33686;48.770;9.186;2023-07-08T08:55:17;33.40;75.50
47921;DHT22;33686;48.770;9.186;2023-07-08T08:57:49;33.10;76.80
47921;DHT22;33686;48.770;9.186;2023-07-08T09:00:18;32.60;77.60
47921;DHT22;33686;48.770;9.186;2023-07-08T09:02:51;32.60;77.30
47921;DHT22;33686;48.770;9.186;2023-07-08T09:05:18;33.20;77.00
47921;DHT22;33686;48.770;9.186;2023-07-08T09:07:45;34.20;75.50
47921;DHT22;33686;48.770;9.186;2023-07-08T09:10:19;35.10;74.30
47921;DHT22;33686;48.770;9.186;2023-07-08T09:12:46;35.30;73.20
47921;DHT22;33686;48.770;9.186;2023-07-08T09:15:15;35.20;73.10
47921;DHT22;33686;48.770;9.186;2023-07-08T09:17:41;35.50;72.30
47921;DHT22;33686;48.770;9.186;2023-07-08T09:20:26;35.30;73.10
47921;DHT22;33686;48.770;9.186;2023-07-08T09:22:59;34.40;73.50
47921;DHT22;33686;48.770;9.186;2023-07-08T09:28:13;34.00;74.50
47921;DHT22;33686;48.770;9.186;2023-07-08T09:30:38;34.80;73.70
47921;DHT22;33686;48.770;9.186;2023-07-08T09:33:04;35.00;73.40
47921;DHT22;33686;48.770;9.186;2023-07-08T09:35:45;35.50;72.60
47921;DHT22;33686;48.770;9.186;2023-07-08T09:38:18;34.40;73.50
47921;DHT22;33686;48.770;9.186;2023-07-08T09:40:47;34.60;74.10
47921;DHT22;33686;48.770;9.186;2023-07-08T09:45:44;34.40;73.30
47921;DHT22;33686;48.770;9.186;2023-07-08T09:48:18;34.60;73.20
47921;DHT22;33686;48.770;9.186;2023-07-08T09:50:47;34.60;73.50
47921;DHT22;33686;48.770;9.186;2023-07-08T09:53:12;35.00;73.10
47921;DHT22;33686;48.770;9.186;2023-07-08T09:55:38;34.30;74.30
47921;DHT22;33686;48.770;9.186;2023-07-08T09:58:04;34.30;73.30
47921;DHT22;33686;48.770;9.186;2023-07-08T10:00:34;34.30;73.00
47921;DHT22;33686;48.770;9.186;2023-07-08T10:03:04;34.80;72.60
47921;DHT22;33686;48.770;9.186;2023-07-08T10:05:35;35.10;71.60
47921;DHT22;33686;48.770;9.186;2023-07-08T10:08:02;35.30;71.60
47921;DHT22;33686;48.770;9.186;2023-07-08T10:10:30;35.10;71.50
47921;DHT22;33686;48.770;9.186;2023-07-08T10:12:58;34.60;72.30
47921;DHT22;33686;48.770;9.186;2023-07-08T10:15:30;34.30;73.00
47921;DHT22;33686;48.770;9.186;2023-07-08T10:17:57;33.60;74.00
47921;DHT22;33686;48.770;9.186;2023-07-08T10:20:23;32.70;75.10
47921;DHT22;33686;48.770;9.186;2023-07-08T10:25:39;31.90;76.40
47921;DHT22;33686;48.770;9.186;2023-07-08T10:28:26;31.30;78.00
47921;DHT22;33686;48.770;9.186;2023-07-08T10:36:21;31.00;79.50
47921;DHT22;33686;48.770;9.186;2023-07-08T10:41:20;30.50;80.30
47921;DHT22;33686;48.770;9.186;2023-07-08T10:43:57;30.70;80.00
47921;DHT22;33686;48.770;9.186;2023-07-08T10:49:02;28.90;81.90
47921;DHT22;33686;48.770;9.186;2023-07-08T10:51:40;28.80;82.20
47921;DHT22;33686;48.770;9.186;2023-07-08T10:54:26;28.70;82.00
47921;DHT22;33686;48.770;9.186;2023-07-08T10:57:31;28.70;82.10
47921;DHT22;33686;48.770;9.186;2023-07-08T11:00:02;28.60;82.10
47921;DHT22;33686;48.770;9.186;2023-07-08T11:02:46;28.50;82.00
47921;DHT22;33686;48.770;9.186;2023-07-08T11:05:28;28.70;82.50
47921;DHT22;33686;48.770;9.186;2023-07-08T11:08:01;28.70;82.30
47921;DHT22;33686;48.770;9.186;2023-07-08T11:10:51;28.50;82.10
47921;DHT22;33686;48.770;9.186;2023-07-08T11:13:17;28.20;83.10
47921;DHT22;33686;48.770;9.186;2023-07-08T11:18:36;28.40;82.60
47921;DHT22;33686;48.770;9.186;2023-07-08T11:21:09;28.80;82.50
47921;DHT22;33686;48.770;9.186;2023-07-08T11:23:36;29.00;81.70
47921;DHT22;33686;48.770;9.186;2023-07-08T11:26:06;28.80;82.00
47921;DHT22;33686;48.770;9.186;2023-07-08T11:28:32;29.60;82.00
47921;DHT22;33686;48.770;9.186;2023-07-08T11:30:58;29.80;81.00
47921;DHT22;33686;48.770;9.186;2023-07-08T11:33:26;30.10;80.50
47921;DHT22;33686;48.770;9.186;2023-07-08T11:35:55;29.70;80.90
47921;DHT22;33686;48.770;9.186;2023-07-08T11:38:24;30.00;80.50
47921;DHT22;33686;48.770;9.186;2023-07-08T11:43:15;29.30;80.80
47921;DHT22;33686;48.770;9.186;2023-07-08T11:45:41;29.60;80.80
47921;DHT22;33686;48.770;9.186;2023-07-08T11:48:22;29.50;80.60
47921;DHT22;33686;48.770;9.186;2023-07-08T11:50:49;29.80;80.50
47921;DHT22;33686;48.770;9.186;2023-07-08T11:56:01;29.20;81.60
47921;DHT22;33686;48.770;9.186;2023-07-08T11:58:31;29.50;81.20
47921;DHT22;33686;48.770;9.186;2023-07-08T12:03:35;29.50;81.40
47921;DHT22;33686;48.770;9.186;2023-07-08T12:06:02;29.80;81.30
47921;DHT22;33686;48.770;9.186;2023-07-08T12:08:37;30.40;80.80
47921;DHT22;33686;48.770;9.186;2023-07-08T12:11:07;30.30;80.00
47921;DHT22;33686;48.770;9.186;2023-07-08T12:13:34;29.80;80.30
47921;DHT22;33686;48.770;9.186;2023-07-08T12:16:01;30.00;80.30
47921;DHT22;33686;48.770;9.186;2023-07-08T12:18:28;30.40;80.20
47921;DHT22;33686;48.770;9.186;2023-07-08T12:20:59;30.60;80.10
47921;DHT22;33686;48.770;9.186;2023-07-08T12:23:27;30.80;79.70
47921;DHT22;33686;48.770;9.186;2023-07-08T12:25:53;31.00;79.30
47921;DHT22;33686;48.770;9.186;2023-07-08T12:28:19;31.10;78.80
47921;DHT22;33686;48.770;9.186;2023-07-08T12:30:45;31.10;78.20
47921;DHT22;33686;48.770;9.186;2023-07-08T12:33:16;30.80;78.20
47921;DHT22;33686;48.770;9.186;2023-07-08T12:35:43;30.80;78.20
47921;DHT22;33686;48.770;9.186;2023-07-08T12:38:13;30.70;78.60
47921;DHT22;33686;48.770;9.186;2023-07-08T12:40:40;30.70;78.30
47921;DHT22;33686;48.770;9.186;2023-07-08T12:43:08;30.80;78.70
47921;DHT22;33686;48.770;9.186;2023-07-08T12:45:34;30.70;79.00
47921;DHT22;33686;48.770;9.186;2023-07-08T12:48:00;30.90;78.20
47921;DHT22;33686;48.770;9.186;2023-07-08T12:50:26;30.80;77.90
47921;DHT22;33686;48.770;9.186;2023-07-08T12:52:51;31.00;77.80
47921;DHT22;33686;48.770;9.186;2023-07-08T12:55:17;30.90;77.90
47921;DHT22;33686;48.770;9.186;2023-07-08T12:57:44;30.80;78.00
47921;DHT22;33686;48.770;9.186;2023-07-08T13:00:23;30.70;78.50
47921;DHT22;33686;48.770;9.186;2023-07-08T13:02:50;31.00;78.20
47921;DHT22;33686;48.770;9.186;2023-07-08T13:05:21;31.40;77.60
47921;DHT22;33686;48.770;9.186;2023-07-08T13:07:47;31.50;77.10
47921;DHT22;33686;48.770;9.186;2023-07-08T13:10:17;31.00;77.60
47921;DHT22;33686;48.770;9.186;2023-07-08T13:12:43;31.10;77.90
47921;DHT22;33686;48.770;9.186;2023-07-08T13:15:15;31.20;77.50
47921;DHT22;33686;48.770;9.186;2023-07-08T13:17:43;31.40;77.10
47921;DHT22;33686;48.770;9.186;2023-07-08T13:20:13;31.50;77.20
47921;DHT22;33686;48.770;9.186;2023-07-08T13:22:40;31.00;77.30
47921;DHT22;33686;48.770;9.186;2023-07-08T13:25:10;31.20;77.30
47921;DHT22;33686;48.770;9.186;2023-07-08T13:27:38;31.60;77.10
47921;DHT22;33686;48.770;9.186;2023-07-08T13:30:10;31.50;76.80
47921;DHT22;33686;48.770;9.186;2023-07-08T13:32:40;31.50;76.80
47921;DHT22;33686;48.770;9.186;2023-07-08T13:35:19;31.40;75.90
47921;DHT22;33686;48.770;9.186;2023-07-08T13:37:46;30.90;75.90
47921;DHT22;33686;48.770;9.186;2023-07-08T13:40:13;31.10;75.80
47921;DHT22;33686;48.770;9.186;2023-07-08T13:42:45;31.50;75.10
47921;DHT22;33686;48.770;9.186;2023-07-08T13:45:15;31.80;74.80
47921;DHT22;33686;48.770;9.186;2023-07-08T13:47:42;32.00;74.60
47921;DHT22;33686;48.770;9.186;2023-07-08T13:50:14;32.10;73.60
47921;DHT22;33686;48.770;9.186;2023-07-08T13:52:43;32.30;73.40
47921;DHT22;33686;48.770;9.186;2023-07-08T13:55:12;32.40;73.00
47921;DHT22;33686;48.770;9.186;2023-07-08T13:57:41;32.10;73.60
47921;DHT22;33686;48.770;9.186;2023-07-08T14:00:07;32.10;73.80
47921;DHT22;33686;48.770;9.186;2023-07-08T14:02:42;32.30;73.30
47921;DHT22;33686;48.770;9.186;2023-07-08T14:05:09;32.10;73.80
47921;DHT22;33686;48.770;9.186;2023-07-08T14:07:36;32.00;74.30
47921;DHT22;33686;48.770;9.186;2023-07-08T14:10:04;31.70;74.50
47921;DHT22;33686;48.770;9.186;2023-07-08T14:12:33;31.40;74.10
47921;DHT22;33686;48.770;9.186;2023-07-08T14:14:58;31.10;74.60
47921;DHT22;33686;48.770;9.186;2023-07-08T14:17:24;30.80;76.40
47921;DHT22;33686;48.770;9.186;2023-07-08T14:19:50;30.70;76.60
47921;DHT22;33686;48.770;9.186;2023-07-08T14:22:20;30.90;76.70
47921;DHT22;33686;48.770;9.186;2023-07-08T14:24:46;31.20;76.70
47921;DHT22;33686;48.770;9.186;2023-07-08T14:27:12;31.40;76.20
47921;DHT22;33686;48.770;9.186;2023-07-08T14:29:39;31.30;76.20
47921;DHT22;33686;48.770;9.186;2023-07-08T14:32:07;31.20;76.50
47921;DHT22;33686;48.770;9.186;2023-07-08T14:34:36;31.30;75.50
47921;DHT22;33686;48.770;9.186;2023-07-08T14:37:02;31.20;76.10
47921;DHT22;33686;48.770;9.186;2023-07-08T14:39:28;31.10;76.20
47921;DHT22;33686;48.770;9.186;2023-07-08T14:41:53;31.30;76.10
47921;DHT22;33686;48.770;9.186;2023-07-08T14:44:24;31.60;75.90
47921;DHT22;33686;48.770;9.186;2023-07-08T14:46:50;31.90;75.50
47921;DHT22;33686;48.770;9.186;2023-07-08T14:49:16;31.80;75.70
47921;DHT22;33686;48.770;9.186;2023-07-08T14:51:42;32.10;75.60
47921;DHT22;33686;48.770;9.186;2023-07-08T14:54:07;32.10;75.40
47921;DHT22;33686;48.770;9.186;2023-07-08T14:56:33;32.30;75.40
47921;DHT22;33686;48.770;9.186;2023-07-08T14:58:58;32.50;74.80
47921;DHT22;33686;48.770;9.186;2023-07-08T15:01:24;32.40;74.40
47921;DHT22;33686;48.770;9.186;2023-07-08T15:03:53;32.50;74.40
47921;DHT22;33686;48.770;9.186;2023-07-08T15:06:19;32.10;74.30
47921;DHT22;33686;48.770;9.186;2023-07-08T15:08:45;32.20;74.40
47921;DHT22;33686;48.770;9.186;2023-07-08T15:11:11;32.40;74.10
47921;DHT22;33686;48.770;9.186;2023-07-08T15:13:37;32.40;74.10
47921;DHT22;33686;48.770;9.186;2023-07-08T15:16:03;32.30;74.10
47921;DHT22;33686;48.770;9.186;2023-07-08T15:18:28;32.40;74.40
47921;DHT22;33686;48.770;9.186;2023-07-08T15:20:54;32.40;74.60
47921;DHT22;33686;48.770;9.186;2023-07-08T15:23:19;32.20;74.90
47921;DHT22;33686;48.770;9.186;2023-07-08T15:25:45;32.20;75.10
47921;DHT22;33686;48.770;9.186;2023-07-08T15:28:17;32.60;74.60
47921;DHT22;33686;48.770;9.186;2023-07-08T15:30:43;32.70;74.50
47921;DHT22;33686;48.770;9.186;2023-07-08T15:33:09;32.70;74.70
47921;DHT22;33686;48.770;9.186;2023-07-08T15:35:34;32.80;74.70
47921;DHT22;33686;48.770;9.186;2023-07-08T15:38:00;33.10;74.40
47921;DHT22;33686;48.770;9.186;2023-07-08T15:40:30;33.00;74.60
47921;DHT22;33686;48.770;9.186;2023-07-08T15:42:56;33.10;74.30
47921;DHT22;33686;48.770;9.186;2023-07-08T15:45:28;33.10;73.90
47921;DHT22;33686;48.770;9.186;2023-07-08T15:47:54;33.10;73.30
47921;DHT22;33686;48.770;9.186;2023-07-08T15:50:21;33.20;72.90
47921;DHT22;33686;48.770;9.186;2023-07-08T15:52:47;33.20;72.90
47921;DHT22;33686;48.770;9.186;2023-07-08T15:55:13;33.10;73.00
47921;DHT22;33686;48.770;9.186;2023-07-08T15:57:49;32.60;74.10
47921;DHT22;33686;48.770;9.186;2023-07-08T16:00:19;32.80;74.20
47921;DHT22;33686;48.770;9.186;2023-07-08T16:02:50;32.80;74.40
47921;DHT22;33686;48.770;9.186;2023-07-08T16:05:17;32.60;74.60
47921;DHT22;33686;48.770;9.186;2023-07-08T16:07:42;32.70;75.40
47921;DHT22;33686;48.770;9.186;2023-07-08T16:10:10;32.50;74.70
47921;DHT22;33686;48.770;9.186;2023-07-08T16:12:35;32.20;75.30
47921;DHT22;33686;48.770;9.186;2023-07-08T16:15:01;31.90;75.10
47921;DHT22;33686;48.770;9.186;2023-07-08T16:17:27;32.20;75.20
47921;DHT22;33686;48.770;9.186;2023-07-08T16:19:55;32.20;74.80
47921;DHT22;33686;48.770;9.186;2023-07-08T16:22:21;32.20;74.60
47921;DHT22;33686;48.770;9.186;2023-07-08T16:24:46;32.20;74.30
47921;DHT22;33686;48.770;9.186;2023-07-08T16:27:12;32.10;74.20
47921;DHT22;33686;48.770;9.186;2023-07-08T16:29:37;32.00;74.60
47921;DHT22;33686;48.770;9.186;2023-07-08T16:32:04;32.00;74.50
47921;DHT22;33686;48.770;9.186;2023-07-08T16:34:30;32.00;74.50
47921;DHT22;33686;48.770;9.186;2023-07-08T16:36:56;32.00;74.90
47921;DHT22;33686;48.770;9.186;2023-07-08T16:39:22;32.10;74.60
47921;DHT22;33686;48.770;9.186;2023-07-08T16:41:48;32.00;74.50
47921;DHT22;33686;48.770;9.186;2023-07-08T16:44:14;31.90;74.60
47921;DHT22;33686;48.770;9.186;2023-07-08T16:46:40;31.70;74.50
47921;DHT22;33686;48.770;9.186;2023-07-08T16:49:07;31.70;74.60
47921;DHT22;33686;48.770;9.186;2023-07-08T16:51:33;31.90;74.80
47921;DHT22;33686;48.770;9.186;2023-07-08T16:54:13;31.90;74.60
47921;DHT22;33686;48.770;9.186;2023-07-08T16:56:39;31.80;74.60
47921;DHT22;33686;48.770;9.186;2023-07-08T16:59:05;31.70;74.80
47921;DHT22;33686;48.770;9.186;2023-07-08T17:01:30;31.80;74.70
47921;DHT22;33686;48.770;9.186;2023-07-08T17:03:56;31.70;74.70
47921;DHT22;33686;48.770;9.186;2023-07-08T17:06:22;31.60;74.80
47921;DHT22;33686;48.770;9.186;2023-07-08T17:08:48;31.60;74.70
47921;DHT22;33686;48.770;9.186;2023-07-08T17:11:13;31.60;74.60
47921;DHT22;33686;48.770;9.186;2023-07-08T17:13:39;31.60;74.70
47921;DHT22;33686;48.770;9.186;2023-07-08T17:16:05;31.60;74.60
47921;DHT22;33686;48.770;9.186;2023-07-08T17:18:30;31.60;74.80
47921;DHT22;33686;48.770;9.186;2023-07-08T17:20:58;31.50;74.90
47921;DHT22;33686;48.770;9.186;2023-07-08T17:23:23;31.40;74.90
47921;DHT22;33686;48.770;9.186;2023-07-08T17:25:49;31.40;75.10
47921;DHT22;33686;48.770;9.186;2023-07-08T17:28:14;31.40;75.40
47921;DHT22;33686;48.770;9.186;2023-07-08T17:30:41;31.40;75.30
47921;DHT22;33686;48.770;9.186;2023-07-08T17:33:08;31.40;75.20
47921;DHT22;33686;48.770;9.186;2023-07-08T17:35:37;31.30;75.20
47921;DHT22;33686;48.770;9.186;2023-07-08T17:38:02;31.40;75.30
47921;DHT22;33686;48.770;9.186;2023-07-08T17:40:28;31.40;75.20
47921;DHT22;33686;48.770;9.186;2023-07-08T17:42:54;31.40;75.20
47921;DHT22;33686;48.770;9.186;2023-07-08T17:45:22;31.40;75.50
47921;DHT22;33686;48.770;9.186;2023-07-08T17:47:49;31.30;75.80
47921;DHT22;33686;48.770;9.186;2023-07-08T17:50:22;31.40;75.90
47921;DHT22;33686;48.770;9.186;2023-07-08T17:52:48;31.30;76.10
47921;DHT22;33686;48.770;9.186;2023-07-08T17:55:14;31.30;76.50
47921;DHT22;33686;48.770;9.186;2023-07-08T17:57:40;31.20;76.50
47921;DHT22;33686;48.770;9.186;2023-07-08T18:00:12;31.10;76.80
47921;DHT22;33686;48.770;9.186;2023-07-08T18:02:39;31.10;77.00
47921;DHT22;33686;48.770;9.186;2023-07-08T18:05:12;31.00;76.80
47921;DHT22;33686;48.770;9.186;2023-07-08T18:07:38;31.00;76.90
47921;DHT22;33686;48.770;9.186;2023-07-08T18:10:04;31.00;77.10
47921;DHT22;33686;48.770;9.186;2023-07-08T18:12:30;30.90;76.80
47921;DHT22;33686;48.770;9.186;2023-07-08T18:14:57;30.80;77.10
47921;DHT22;33686;48.770;9.186;2023-07-08T18:17:22;30.80;77.30
47921;DHT22;33686;48.770;9.186;2023-07-08T18:19:49;30.80;77.40
47921;DHT22;33686;48.770;9.186;2023-07-08T18:22:14;30.70;77.40
47921;DHT22;33686;48.770;9.186;2023-07-08T18:24:40;30.70;77.40
47921;DHT22;33686;48.770;9.186;2023-07-08T18:27:05;30.60;77.60
47921;DHT22;33686;48.770;9.186;2023-07-08T18:29:31;30.70;77.80
47921;DHT22;33686;48.770;9.186;2023-07-08T18:31:56;30.50;77.90
47921;DHT22;33686;48.770;9.186;2023-07-08T18:34:22;30.50;78.10
47921;DHT22;33686;48.770;9.186;2023-07-08T18:36:49;30.40;78.30
47921;DHT22;33686;48.770;9.186;2023-07-08T18:39:15;30.30;78.50
47921;DHT22;33686;48.770;9.186;2023-07-08T18:41:46;30.30;78.60
47921;DHT22;33686;48.770;9.186;2023-07-08T18:44:14;30.20;78.90
47921;DHT22;33686;48.770;9.186;2023-07-08T18:46:40;30.10;79.00
47921;DHT22;33686;48.770;9.186;2023-07-08T18:49:07;30.10;79.30
47921;DHT22;33686;48.770;9.186;2023-07-08T18:51:40;30.00;79.40
47921;DHT22;33686;48.770;9.186;2023-07-08T18:54:16;29.90;79.60
47921;DHT22;33686;48.770;9.186;2023-07-08T18:56:41;29.80;79.70
47921;DHT22;33686;48.770;9.186;2023-07-08T18:59:07;29.80;80.20
47921;DHT22;33686;48.770;9.186;2023-07-08T19:01:32;29.60;80.80
47921;DHT22;33686;48.770;9.186;2023-07-08T19:03:59;29.50;81.20
47921;DHT22;33686;48.770;9.186;2023-07-08T19:06:25;29.10;82.40
47921;DHT22;33686;48.770;9.186;2023-07-08T19:08:51;28.90;83.10
47921;DHT22;33686;48.770;9.186;2023-07-08T19:11:21;28.60;83.80
47921;DHT22;33686;48.770;9.186;2023-07-08T19:13:48;28.40;84.30
47921;DHT22;33686;48.770;9.186;2023-07-08T19:16:14;28.20;84.80
47921;DHT22;33686;48.770;9.186;2023-07-08T19:18:42;28.00;85.30
47921;DHT22;33686;48.770;9.186;2023-07-08T19:21:12;27.90;85.50
47921;DHT22;33686;48.770;9.186;2023-07-08T19:23:40;27.70;85.90
47921;DHT22;33686;48.770;9.186;2023-07-08T19:26:14;27.80;85.50
47921;DHT22;33686;48.770;9.186;2023-07-08T19:28:40;27.80;85.50
47921;DHT22;33686;48.770;9.186;2023-07-08T19:31:07;27.70;85.60
47921;DHT22;33686;48.770;9.186;2023-07-08T19:33:37;27.80;85.60
47921;DHT22;33686;48.770;9.186;2023-07-08T19:36:03;27.70;85.50
47921;DHT22;33686;48.770;9.186;2023-07-08T19:38:30;27.60;85.70
47921;DHT22;33686;48.770;9.186;2023-07-08T19:40:56;27.60;86.00
47921;DHT22;33686;48.770;9.186;2023-07-08T19:43:21;27.50;86.10
47921;DHT22;33686;48.770;9.186;2023-07-08T19:45:47;27.30;86.70
47921;DHT22;33686;48.770;9.186;2023-07-08T19:48:13;27.20;86.90
47921;DHT22;33686;48.770;9.186;2023-07-08T19:50:39;27.20;87.10
47921;DHT22;33686;48.770;9.186;2023-07-08T19:53:05;27.20;87.20
47921;DHT22;33686;48.770;9.186;2023-07-08T19:55:30;27.00;87.60
47921;DHT22;33686;48.770;9.186;2023-07-08T19:57:56;26.80;88.50
47921;DHT22;33686;48.770;9.186;2023-07-08T20:02:48;26.60;88.90
47921;DHT22;33686;48.770;9.186;2023-07-08T20:05:14;26.60;89.10
47921;DHT22;33686;48.770;9.186;2023-07-08T20:07:40;26.70;89.00
47921;DHT22;33686;48.770;9.186;2023-07-08T20:10:07;26.70;89.10
47921;DHT22;33686;48.770;9.186;2023-07-08T20:12:33;26.60;89.40
47921;DHT22;33686;48.770;9.186;2023-07-08T20:14:59;26.50;89.50
47921;DHT22;33686;48.770;9.186;2023-07-08T20:17:25;26.60;89.30
47921;DHT22;33686;48.770;9.186;2023-07-08T20:19:50;26.70;89.30
47921;DHT22;33686;48.770;9.186;2023-07-08T20:22:16;26.60;89.30
47921;DHT22;33686;48.770;9.186;2023-07-08T20:24:42;26.50;89.60
47921;DHT22;33686;48.770;9.186;2023-07-08T20:27:08;26.50;89.70
47921;DHT22;33686;48.770;9.186;2023-07-08T20:29:34;26.60;89.60
47921;DHT22;33686;48.770;9.186;2023-07-08T20:31:59;26.50;89.70
47921;DHT22;33686;48.770;9.186;2023-07-08T20:34:25;26.50;90.00
47921;DHT22;33686;48.770;9.186;2023-07-08T20:36:50;26.60;89.80
47921;DHT22;33686;48.770;9.186;2023-07-08T20:39:16;26.50;89.80
47921;DHT22;33686;48.770;9.186;2023-07-08T20:41:44;26.30;90.40
47921;DHT22;33686;48.770;9.186;2023-07-08T20:44:09;26.30;90.50
47921;DHT22;33686;48.770;9.186;2023-07-08T20:46:35;26.30;90.50
47921;DHT22;33686;48.770;9.186;2023-07-08T20:49:01;26.30;90.50
47921;DHT22;33686;48.770;9.186;2023-07-08T20:51:27;26.30;90.70
47921;DHT22;33686;48.770;9.186;2023-07-08T20:53:53;26.30;91.00
47921;DHT22;33686;48.770;9.186;2023-07-08T20:56:21;26.20;91.00
47921;DHT22;33686;48.770;9.186;2023-07-08T20:58:47;26.10;91.20
47921;DHT22;33686;48.770;9.186;2023-07-08T21:01:12;26.00;91.30
47921;DHT22;33686;48.770;9.186;2023-07-08T21:03:38;25.90;91.60
47921;DHT22;33686;48.770;9.186;2023-07-08T21:06:03;25.80;91.90
47921;DHT22;33686;48.770;9.186;2023-07-08T21:08:34;25.70;92.00
47921;DHT22;33686;48.770;9.186;2023-07-08T21:11:01;25.70;92.20
47921;DHT22;33686;48.770;9.186;2023-07-08T21:13:27;25.50;92.70
47921;DHT22;33686;48.770;9.186;2023-07-08T21:15:52;25.30;93.10
47921;DHT22;33686;48.770;9.186;2023-07-08T21:18:19;25.10;93.30
47921;DHT22;33686;48.770;9.186;2023-07-08T21:20:45;25.10;93.30